createdAt,value
2018-06-20T00:09:56.534Z,0
2018-06-20T00:19:56.518Z,0
2018-06-20T00:29:56.527Z,0
2018-06-20T00:39:56.493Z,0
2018-06-20T00:49:56.490Z,0
2018-06-20T00:59:56.512Z,0
2018-06-20T01:09:56.512Z,0
2018-06-20T01:19:56.466Z,0
2018-06-20T01:29:56.501Z,0
2018-06-20T01:39:56.492Z,0
2018-06-20T01:49:56.643Z,0
2018-06-20T01:59:56.545Z,0
2018-06-20T02:09:56.485Z,0
2018-06-20T02:19:56.561Z,0
2018-06-20T02:29:56.513Z,0
2018-06-20T02:39:56.558Z,0
2018-06-20T02:49:56.556Z,0
2018-06-20T02:59:56.597Z,0
2018-06-20T03:09:56.505Z,0
2018-06-20T03:19:57.532Z,0
2018-06-20T03:29:56.609Z,0
2018-06-20T03:39:56.550Z,5
2018-06-20T03:49:56.608Z,10
2018-06-20T03:59:56.648Z,10
2018-06-20T04:09:56.530Z,15
2018-06-20T04:19:56.630Z,20
2018-06-20T04:29:56.531Z,35
2018-06-20T04:39:56.492Z,55
2018-06-20T04:49:56.485Z,85
2018-06-20T04:59:56.533Z,125
2018-06-20T05:09:56.562Z,125
2018-06-20T05:19:56.733Z,160
2018-06-20T05:29:56.537Z,170
2018-06-20T05:39:56.677Z,180
2018-06-20T05:49:56.613Z,170
2018-06-20T05:59:56.502Z,140
2018-06-20T06:09:56.511Z,145
2018-06-20T06:19:56.650Z,160
2018-06-20T06:29:56.632Z,180
2018-06-20T06:39:56.735Z,175
2018-06-20T06:49:56.785Z,140
2018-06-20T06:59:56.633Z,230
2018-06-20T07:09:56.651Z,275
2018-06-20T07:19:56.538Z,395
2018-06-20T07:29:56.628Z,285
2018-06-20T07:39:56.579Z,400
2018-06-20T07:49:56.561Z,215
2018-06-20T07:59:56.620Z,280
2018-06-20T08:09:56.522Z,310
2018-06-20T08:19:56.590Z,325
2018-06-20T08:29:56.587Z,210
2018-06-20T08:39:56.589Z,225
2018-06-20T08:49:56.547Z,230
2018-06-20T08:59:56.561Z,165
2018-06-20T09:09:56.595Z,280
2018-06-20T09:19:56.754Z,380
2018-06-20T09:29:56.596Z,340
2018-06-20T09:39:56.609Z,340
2018-06-20T09:49:56.579Z,310
2018-06-20T09:59:57.786Z,360
2018-06-20T10:09:56.608Z,370
2018-06-20T10:19:57.065Z,385
2018-06-20T10:29:56.692Z,275
2018-06-20T10:39:58.114Z,370
2018-06-20T10:49:56.772Z,310
2018-06-20T10:59:56.643Z,290
2018-06-20T11:09:56.587Z,285
2018-06-20T11:19:56.734Z,270
2018-06-20T11:29:56.764Z,220
2018-06-20T11:39:56.722Z,250
2018-06-20T11:49:56.864Z,240
2018-06-20T11:59:56.731Z,175
2018-06-20T12:09:56.679Z,180
2018-06-20T12:19:56.621Z,250
2018-06-20T12:29:56.622Z,195
2018-06-20T12:39:56.629Z,190
2018-06-20T12:49:56.690Z,140
2018-06-20T12:59:56.672Z,145
2018-06-20T13:09:56.642Z,175
2018-06-20T13:19:56.671Z,145
2018-06-20T13:29:56.665Z,130
2018-06-20T13:39:56.878Z,150
2018-06-20T13:49:56.629Z,175
2018-06-20T13:59:56.639Z,130
2018-06-20T14:09:56.653Z,130
2018-06-20T14:19:57.092Z,150
2018-06-20T14:29:56.849Z,120
2018-06-20T14:39:57.665Z,130
2018-06-20T14:49:56.956Z,130
2018-06-20T14:59:56.714Z,110
2018-06-20T15:09:56.730Z,105
2018-06-20T15:19:56.668Z,110
2018-06-20T15:29:56.679Z,105
2018-06-20T15:39:56.736Z,100
2018-06-20T15:49:56.791Z,100
2018-06-20T15:59:56.752Z,100
2018-06-20T16:09:56.700Z,100
2018-06-20T16:19:56.717Z,100
2018-06-20T16:29:57.298Z,95
2018-06-20T16:39:56.727Z,90
2018-06-20T16:49:56.768Z,90
2018-06-20T16:59:56.708Z,85
2018-06-20T17:09:56.737Z,85
2018-06-20T17:19:57.004Z,80
2018-06-20T17:29:56.721Z,75
2018-06-20T17:39:56.730Z,75
2018-06-20T17:49:56.701Z,75
2018-06-20T17:59:56.960Z,70
2018-06-20T18:09:56.709Z,65
2018-06-20T18:19:57.407Z,60
2018-06-20T18:29:56.902Z,55
2018-06-20T18:39:56.815Z,50
2018-06-20T18:49:56.908Z,45
2018-06-20T18:59:56.726Z,35
2018-06-20T19:09:56.843Z,30
2018-06-20T19:19:56.877Z,20
2018-06-20T19:29:56.773Z,15
2018-06-20T19:39:56.820Z,10
2018-06-20T19:49:56.873Z,5
2018-06-20T19:59:56.741Z,0
2018-06-20T20:09:56.943Z,0
2018-06-20T20:19:57.331Z,0
2018-06-20T20:29:57.119Z,0
2018-06-20T20:39:57.839Z,0
2018-06-20T20:49:57.446Z,0
2018-06-20T20:59:56.830Z,0
2018-06-20T21:09:57.722Z,0
2018-06-20T21:19:57.939Z,0
2018-06-20T21:29:56.742Z,0
2018-06-20T21:39:56.750Z,0
2018-06-20T21:49:56.750Z,0
2018-06-20T21:59:56.779Z,0
2018-06-20T22:11:24.269Z,0
2018-06-20T22:21:24.282Z,0
2018-06-20T22:31:24.300Z,0
2018-06-20T22:41:24.406Z,0
2018-06-20T22:51:24.405Z,0
2018-06-20T23:01:24.546Z,0
2018-06-20T23:11:24.344Z,0
2018-06-20T23:21:24.274Z,0
2018-06-20T23:31:24.391Z,0
2018-06-20T23:41:24.310Z,0
2018-06-20T23:51:24.351Z,0
